Time;durP1;ratioP1;P1;durP2;ratioP2;P2;SDS_P1;SDS_P2;PMS_P1;PMS_P2;Temp;Humidity;BMP_temperature;BMP_pressure;BME280_temperature;BME280_humidity;BME280_pressure;Samples;Min_cycle;Max_cycle;Signal;HPM_P1;HPM_P2
2023/05/30 00:01:25;;;;;;;17.35;4.85;;;;;;;;;;4874979;29;20064;-62
2023/05/30 00:03:56;;;;;;;8.40;4.57;;;;;;;;;;4844274;29;20084;-62
2023/05/30 00:06:29;;;;;;;8.25;4.28;;;;;;;;;;4897538;29;20068;-62
2023/05/30 00:09:03;;;;;;;8.05;4.43;;;;;;;;;;4924750;29;20062;-62
2023/05/30 00:11:34;;;;;;;10.02;4.28;;;;;;;;;;4949362;28;20396;-62
2023/05/30 00:14:06;;;;;;;9.55;4.53;;;;;;;;;;4928442;28;20070;-62
2023/05/30 00:16:38;;;;;;;9.38;4.43;;;;;;;;;;4936880;28;20065;-64
2023/05/30 00:19:10;;;;;;;9.57;4.30;;;;;;;;;;4967476;28;20052;-62
2023/05/30 00:21:41;;;;;;;8.30;4.20;;;;;;;;;;4943406;28;20494;-62
2023/05/30 00:24:13;;;;;;;8.38;3.20;;;;;;;;;;5008688;28;20571;-62
2023/05/30 00:26:43;;;;;;;7.13;3.67;;;;;;;;;;4990277;28;20553;-63
2023/05/30 00:29:15;;;;;;;10.38;4.10;;;;;;;;;;5020029;28;20065;-64
2023/05/30 00:31:47;;;;;;;9.35;4.32;;;;;;;;;;5025419;28;20397;-63
2023/05/30 00:34:19;;;;;;;7.10;3.90;;;;;;;;;;4996580;28;20069;-63
2023/05/30 00:36:50;;;;;;;9.27;4.70;;;;;;;;;;4955454;28;20064;-63
2023/05/30 00:39:21;;;;;;;8.23;4.18;;;;;;;;;;4992203;28;20046;-63
2023/05/30 00:41:53;;;;;;;9.18;4.03;;;;;;;;;;5035767;28;20045;-62
2023/05/30 00:44:24;;;;;;;8.50;4.38;;;;;;;;;;5004999;28;20056;-65
2023/05/30 00:47:01;;;;;;;8.68;4.50;;;;;;;;;;5028485;28;20104;-63
2023/05/30 00:49:35;;;;;;;10.45;4.72;;;;;;;;;;4945442;28;20057;-63
2023/05/30 00:52:08;;;;;;;8.80;4.00;;;;;;;;;;4988259;28;20054;-64
2023/05/30 00:54:43;;;;;;;7.85;4.13;;;;;;;;;;4988440;28;20065;-63
2023/05/30 00:57:16;;;;;;;8.20;4.47;;;;;;;;;;4988125;28;20126;-63
2023/05/30 00:59:47;;;;;;;9.10;4.07;;;;;;;;;;4958435;28;20057;-63
2023/05/30 01:02:18;;;;;;;11.98;4.75;;;;;;;;;;4987450;28;20146;-63
2023/05/30 01:04:52;;;;;;;7.00;3.80;;;;;;;;;;4955804;28;20534;-62
2023/05/30 01:07:23;;;;;;;10.43;4.40;;;;;;;;;;4989172;28;20536;-63
2023/05/30 01:09:56;;;;;;;10.27;4.22;;;;;;;;;;4972779;28;20073;-63
2023/05/30 01:12:34;;;;;;;10.45;4.03;;;;;;;;;;4972893;28;20523;-63
2023/05/30 01:15:15;;;;;;;8.55;4.40;;;;;;;;;;4934197;28;20060;-63
2023/05/30 01:18:24;;;;;;;9.90;4.80;;;;;;;;;;4934413;28;20059;-63
2023/05/30 01:21:03;;;;;;;10.70;4.47;;;;;;;;;;4859039;29;20148;-63
2023/05/30 01:24:15;;;;;;;9.35;4.38;;;;;;;;;;4828158;29;20069;-64
2023/05/30 01:27:21;;;;;;;8.90;4.13;;;;;;;;;;4840021;29;20049;-63
2023/05/30 01:29:53;;;;;;;11.10;4.78;;;;;;;;;;4834366;29;20541;-62
2023/05/30 01:32:24;;;;;;;10.43;4.63;;;;;;;;;;4836618;29;20058;-64
2023/05/30 01:34:57;;;;;;;12.35;5.03;;;;;;;;;;4869752;29;20062;-63
2023/05/30 01:37:28;;;;;;;10.68;5.28;;;;;;;;;;4870348;29;20050;-63
2023/05/30 01:39:58;;;;;;;10.75;5.40;;;;;;;;;;4822446;29;20061;-64
2023/05/30 01:42:32;;;;;;;13.85;5.32;;;;;;;;;;4821871;29;20519;-64
2023/05/30 01:45:18;;;;;;;16.27;5.78;;;;;;;;;;4821739;29;20069;-62
2023/05/30 01:48:18;;;;;;;13.38;5.25;;;;;;;;;;4810726;29;20051;-63
2023/05/30 01:50:51;;;;;;;14.80;5.03;;;;;;;;;;4803578;29;20062;-63
2023/05/30 01:53:36;;;;;;;18.38;5.63;;;;;;;;;;4846796;29;20050;-64
2023/05/30 01:56:07;;;;;;;;;;;;;;;;;;4871265;29;20077;-63
2023/05/30 01:58:38;;;;;;;11.15;5.38;;;;;;;;;;4828118;29;19932;-63
2023/05/30 02:01:10;;;;;;;24.73;5.05;;;;;;;;;;4884209;29;20058;-63
2023/05/30 02:03:40;;;;;;;14.75;5.43;;;;;;;;;;4901430;29;20051;-63
2023/05/30 02:06:11;;;;;;;11.45;4.85;;;;;;;;;;4898244;29;20052;-64
2023/05/30 02:08:41;;;;;;;16.95;5.35;;;;;;;;;;4911027;29;20060;-63
2023/05/30 02:11:11;;;;;;;13.57;4.82;;;;;;;;;;4895561;29;20060;-64
2023/05/30 02:13:44;;;;;;;13.27;4.38;;;;;;;;;;4913830;29;20052;-62
2023/05/30 02:16:17;;;;;;;8.25;4.18;;;;;;;;;;4895376;29;20057;-62
2023/05/30 02:18:48;;;;;;;14.35;4.25;;;;;;;;;;4913715;29;20064;-63
2023/05/30 02:21:18;;;;;;;9.90;5.72;;;;;;;;;;4914103;29;20056;-63
2023/05/30 02:23:49;;;;;;;15.05;4.43;;;;;;;;;;4945513;29;20527;-63
2023/05/30 02:26:20;;;;;;;12.95;4.55;;;;;;;;;;4931847;29;20090;-63
2023/05/30 02:28:50;;;;;;;12.45;4.57;;;;;;;;;;4929261;29;20048;-63
2023/05/30 02:31:21;;;;;;;7.65;4.35;;;;;;;;;;4914152;29;20060;-63
2023/05/30 02:33:51;;;;;;;9.07;4.20;;;;;;;;;;4897941;29;20055;-63
2023/05/30 02:36:21;;;;;;;8.05;4.40;;;;;;;;;;4882198;29;20060;-63
2023/05/30 02:38:52;;;;;;;7.63;4.03;;;;;;;;;;4923764;29;20087;-62
2023/05/30 02:41:25;;;;;;;8.75;4.18;;;;;;;;;;4932160;29;20062;-64
2023/05/30 02:43:56;;;;;;;13.00;4.72;;;;;;;;;;4942656;28;20406;-62
2023/05/30 02:46:26;;;;;;;9.77;4.80;;;;;;;;;;4910450;29;20045;-63
2023/05/30 02:48:57;;;;;;;8.68;4.57;;;;;;;;;;4896056;29;20685;-63
2023/05/30 02:51:27;;;;;;;8.48;4.65;;;;;;;;;;4934000;28;20043;-62
2023/05/30 02:53:58;;;;;;;10.75;4.72;;;;;;;;;;4951366;29;20411;-64
2023/05/30 02:56:48;;;;;;;11.27;4.78;;;;;;;;;;4951417;29;20051;-64
2023/05/30 02:59:38;;;;;;;9.88;4.70;;;;;;;;;;4950346;29;20716;-62
2023/05/30 03:02:11;;;;;;;13.43;5.60;;;;;;;;;;4932023;29;20441;-63
2023/05/30 03:04:45;;;;;;;12.90;5.55;;;;;;;;;;4932058;29;20059;-67
2023/05/30 03:07:17;;;;;;;9.68;4.90;;;;;;;;;;4931978;29;20062;-62
2023/05/30 03:09:49;;;;;;;14.75;5.82;;;;;;;;;;4901367;29;20051;-63
2023/05/30 03:12:22;;;;;;;11.82;5.75;;;;;;;;;;4882079;29;20066;-63
2023/05/30 03:14:52;;;;;;;14.48;6.90;;;;;;;;;;4896935;29;20048;-63
2023/05/30 03:17:23;;;;;;;12.70;6.30;;;;;;;;;;4913292;29;20576;-62
2023/05/30 03:19:53;;;;;;;12.65;6.10;;;;;;;;;;4878225;29;20501;-63
2023/05/30 03:22:23;;;;;;;17.25;5.55;;;;;;;;;;4860113;29;20058;-62
2023/05/30 03:24:54;;;;;;;13.07;5.72;;;;;;;;;;4856686;29;20060;-63
2023/05/30 03:27:25;;;;;;;11.35;5.40;;;;;;;;;;4841464;29;20053;-62
2023/05/30 03:29:56;;;;;;;10.93;5.80;;;;;;;;;;4872244;29;20552;-63
2023/05/30 03:32:26;;;;;;;11.60;5.55;;;;;;;;;;4905665;29;20053;-62
2023/05/30 03:34:57;;;;;;;10.95;6.45;;;;;;;;;;4875100;29;20057;-63
2023/05/30 03:37:28;;;;;;;14.18;6.68;;;;;;;;;;4874888;29;20049;-62
2023/05/30 03:39:59;;;;;;;12.07;5.68;;;;;;;;;;4875293;29;20057;-63
2023/05/30 03:42:29;;;;;;;11.57;5.53;;;;;;;;;;4847290;29;20060;-62
2023/05/30 03:44:59;;;;;;;12.50;6.13;;;;;;;;;;4850503;29;20057;-62
2023/05/30 03:47:34;;;;;;;16.63;6.30;;;;;;;;;;4849720;29;20505;-63
2023/05/30 03:50:05;;;;;;;14.13;6.00;;;;;;;;;;4856572;29;20120;-62
2023/05/30 03:52:35;;;;;;;15.30;6.63;;;;;;;;;;4887055;29;20053;-63
2023/05/30 03:55:06;;;;;;;13.02;6.55;;;;;;;;;;4856613;29;20415;-62
2023/05/30 03:57:36;;;;;;;9.95;5.15;;;;;;;;;;4846968;29;20050;-63
2023/05/30 04:00:07;;;;;;;16.15;7.03;;;;;;;;;;4838183;29;20070;-63
2023/05/30 04:02:40;;;;;;;14.73;6.70;;;;;;;;;;4838551;29;20506;-62
2023/05/30 04:05:12;;;;;;;14.65;6.32;;;;;;;;;;4866424;29;20097;-63
2023/05/30 04:07:42;;;;;;;18.08;6.40;;;;;;;;;;4912364;29;20048;-63
2023/05/30 04:10:13;;;;;;;15.68;6.80;;;;;;;;;;4912273;29;20067;-62
2023/05/30 04:12:43;;;;;;;12.57;6.85;;;;;;;;;;4922589;29;20427;-62
2023/05/30 04:15:13;;;;;;;14.68;6.65;;;;;;;;;;4910159;29;20086;-62
2023/05/30 04:17:45;;;;;;;12.75;6.32;;;;;;;;;;4951853;28;20422;-62
2023/05/30 04:20:17;;;;;;;16.83;6.45;;;;;;;;;;4959159;28;20047;-62
2023/05/30 04:22:47;;;;;;;12.43;6.43;;;;;;;;;;4891175;29;20049;-64
2023/05/30 04:25:18;;;;;;;12.77;6.65;;;;;;;;;;4855992;29;20042;-63
2023/05/30 04:27:48;;;;;;;15.68;7.60;;;;;;;;;;4884378;29;20403;-62
2023/05/30 04:30:20;;;;;;;14.20;6.70;;;;;;;;;;4893428;29;20064;-62
2023/05/30 04:32:52;;;;;;;15.10;5.75;;;;;;;;;;4893167;29;20048;-62
2023/05/30 04:35:22;;;;;;;15.35;5.53;;;;;;;;;;4912129;29;20060;-62
2023/05/30 04:37:53;;;;;;;11.93;6.10;;;;;;;;;;4912080;29;20128;-62
2023/05/30 04:40:25;;;;;;;17.88;5.95;;;;;;;;;;4892944;29;20056;-63
2023/05/30 04:42:55;;;;;;;15.73;6.45;;;;;;;;;;4894667;29;20056;-62
2023/05/30 04:45:28;;;;;;;11.27;5.95;;;;;;;;;;4896967;29;20072;-63
2023/05/30 04:47:59;;;;;;;15.00;6.05;;;;;;;;;;4912336;29;20056;-62
2023/05/30 04:50:29;;;;;;;15.88;5.63;;;;;;;;;;4850349;29;20052;-64
2023/05/30 04:53:01;;;;;;;16.08;6.20;;;;;;;;;;4912059;29;20126;-62
2023/05/30 04:55:31;;;;;;;15.18;6.30;;;;;;;;;;4906971;29;20067;-62
2023/05/30 04:58:03;;;;;;;12.85;6.28;;;;;;;;;;4934395;29;20052;-62
2023/05/30 05:00:35;;;;;;;13.30;6.00;;;;;;;;;;4913056;29;20054;-64
2023/05/30 05:03:06;;;;;;;10.70;5.50;;;;;;;;;;4932446;29;20052;-63
2023/05/30 05:05:36;;;;;;;10.70;5.53;;;;;;;;;;4905509;29;20059;-63
2023/05/30 05:08:06;;;;;;;13.20;5.95;;;;;;;;;;4916982;29;20059;-62
2023/05/30 05:10:38;;;;;;;12.80;6.65;;;;;;;;;;4934637;29;20056;-62
2023/05/30 05:13:08;;;;;;;13.10;6.22;;;;;;;;;;4944797;29;20055;-62
2023/05/30 05:15:38;;;;;;;12.30;5.72;;;;;;;;;;4953753;29;20055;-62
2023/05/30 05:18:10;;;;;;;16.52;7.28;;;;;;;;;;4963553;28;20551;-62
2023/05/30 05:20:40;;;;;;;11.50;5.75;;;;;;;;;;4945837;28;20518;-62
2023/05/30 05:23:11;;;;;;;14.57;6.72;;;;;;;;;;5011785;28;20053;-63
2023/05/30 05:25:41;;;;;;;16.85;7.13;;;;;;;;;;5011768;28;20050;-62
2023/05/30 05:28:11;;;;;;;14.70;5.97;;;;;;;;;;4962966;28;20120;-61
2023/05/30 05:30:44;;;;;;;13.45;5.97;;;;;;;;;;4972727;28;20058;-62
2023/05/30 05:33:15;;;;;;;11.20;5.57;;;;;;;;;;4940456;28;20059;-62
2023/05/30 05:35:46;;;;;;;11.30;5.63;;;;;;;;;;4961031;28;20065;-62
2023/05/30 05:38:19;;;;;;;17.52;5.10;;;;;;;;;;4978924;28;20073;-62
2023/05/30 05:40:49;;;;;;;13.23;5.68;;;;;;;;;;5022346;28;20390;-63
2023/05/30 05:43:20;;;;;;;10.95;4.88;;;;;;;;;;5031165;28;20061;-62
2023/05/30 05:45:51;;;;;;;11.77;5.13;;;;;;;;;;5031398;28;20053;-62
2023/05/30 05:48:22;;;;;;;13.13;5.50;;;;;;;;;;5031153;28;20068;-64
2023/05/30 05:50:52;;;;;;;12.13;5.38;;;;;;;;;;5015237;28;20054;-62
2023/05/30 05:53:23;;;;;;;11.05;5.07;;;;;;;;;;5010775;28;20054;-62
2023/05/30 05:55:54;;;;;;;9.75;4.47;;;;;;;;;;4978143;28;20054;-62
2023/05/30 05:58:24;;;;;;;10.68;4.90;;;;;;;;;;4995133;28;20058;-62
2023/05/30 06:00:55;;;;;;;9.95;5.05;;;;;;;;;;4995035;28;20068;-63
2023/05/30 06:03:25;;;;;;;12.07;4.50;;;;;;;;;;4995179;28;20514;-63
2023/05/30 06:05:57;;;;;;;8.15;4.30;;;;;;;;;;5010892;28;20058;-65
2023/05/30 06:08:27;;;;;;;10.07;3.67;;;;;;;;;;5045003;28;20052;-62
2023/05/30 06:10:57;;;;;;;7.75;3.70;;;;;;;;;;5070573;28;20143;-64
2023/05/30 06:13:28;;;;;;;6.93;3.63;;;;;;;;;;5036866;28;20060;-63
2023/05/30 06:15:58;;;;;;;8.73;4.00;;;;;;;;;;4990519;28;20095;-62
2023/05/30 06:18:28;;;;;;;7.18;3.47;;;;;;;;;;5070575;28;20059;-62
2023/05/30 06:20:59;;;;;;;8.65;3.70;;;;;;;;;;5036781;28;20052;-62
2023/05/30 06:23:30;;;;;;;6.82;3.53;;;;;;;;;;5070309;28;20044;-62
2023/05/30 06:26:00;;;;;;;10.63;4.57;;;;;;;;;;5070252;28;20056;-62
2023/05/30 06:28:30;;;;;;;10.35;4.03;;;;;;;;;;5053676;28;20045;-62
2023/05/30 06:31:00;;;;;;;7.72;4.00;;;;;;;;;;5010570;28;20437;-63
2023/05/30 06:33:30;;;;;;;8.02;4.10;;;;;;;;;;4985483;28;20056;-62
2023/05/30 06:36:00;;;;;;;8.40;4.00;;;;;;;;;;5050054;28;20156;-62
2023/05/30 06:38:30;;;;;;;7.72;4.03;;;;;;;;;;5049953;28;20420;-62
2023/05/30 06:41:01;;;;;;;8.93;3.97;;;;;;;;;;5050358;28;20053;-62
2023/05/30 06:43:32;;;;;;;7.35;3.83;;;;;;;;;;5049873;28;20045;-64
2023/05/30 06:46:03;;;;;;;7.43;3.75;;;;;;;;;;5050204;28;20065;-62
2023/05/30 06:48:33;;;;;;;9.57;3.50;;;;;;;;;;5050115;28;20533;-64
2023/05/30 06:51:03;;;;;;;9.98;3.58;;;;;;;;;;5049882;28;20053;-64
2023/05/30 06:53:34;;;;;;;17.00;3.78;;;;;;;;;;5010067;28;20487;-62
2023/05/30 06:56:05;;;;;;;15.57;3.50;;;;;;;;;;4954881;28;20047;-65
2023/05/30 06:58:36;;;;;;;13.65;3.15;;;;;;;;;;4971176;28;20050;-62
2023/05/30 07:01:06;;;;;;;13.80;3.30;;;;;;;;;;4973046;28;20061;-63
2023/05/30 07:03:37;;;;;;;15.25;4.38;;;;;;;;;;5010009;28;20056;-62
2023/05/30 07:06:07;;;;;;;18.23;3.90;;;;;;;;;;4993950;28;20050;-62
2023/05/30 07:08:37;;;;;;;13.00;3.78;;;;;;;;;;4977598;28;20057;-63
2023/05/30 07:11:07;;;;;;;9.25;3.85;;;;;;;;;;5009822;28;20054;-62
2023/05/30 07:13:37;;;;;;;6.47;3.50;;;;;;;;;;4993896;28;20049;-63
2023/05/30 07:16:07;;;;;;;6.07;3.25;;;;;;;;;;5009521;28;20054;-63
2023/05/30 07:18:38;;;;;;;13.40;4.05;;;;;;;;;;4989844;28;20054;-62
2023/05/30 07:21:10;;;;;;;9.18;3.30;;;;;;;;;;4989779;28;20058;-63
2023/05/30 07:23:40;;;;;;;5.55;3.03;;;;;;;;;;4990268;28;20066;-62
2023/05/30 07:26:10;;;;;;;6.05;2.67;;;;;;;;;;4990056;28;20403;-62
2023/05/30 07:28:40;;;;;;;5.30;2.78;;;;;;;;;;4973626;28;20058;-63
2023/05/30 07:31:10;;;;;;;5.03;2.85;;;;;;;;;;4999515;28;20517;-62
2023/05/30 07:33:40;;;;;;;11.32;3.13;;;;;;;;;;4989049;28;20463;-62
2023/05/30 07:36:10;;;;;;;5.75;3.42;;;;;;;;;;5048885;28;20456;-62
2023/05/30 07:38:41;;;;;;;9.50;3.97;;;;;;;;;;5032395;28;20554;-62
2023/05/30 07:41:11;;;;;;;7.47;4.10;;;;;;;;;;5015972;28;20060;-63
2023/05/30 07:43:41;;;;;;;8.25;4.10;;;;;;;;;;5049332;28;20048;-62
2023/05/30 07:46:11;;;;;;;11.73;4.05;;;;;;;;;;4989635;28;20054;-63
2023/05/30 07:48:42;;;;;;;17.27;3.95;;;;;;;;;;4959520;28;20054;-62
2023/05/30 07:51:12;;;;;;;7.05;3.78;;;;;;;;;;5028899;28;20061;-62
2023/05/30 07:53:42;;;;;;;8.32;3.33;;;;;;;;;;5028746;28;20064;-62
2023/05/30 07:56:14;;;;;;;5.70;3.08;;;;;;;;;;5012267;28;20065;-62
2023/05/30 07:58:45;;;;;;;10.45;3.38;;;;;;;;;;5028872;28;20049;-62
2023/05/30 08:01:16;;;;;;;8.77;3.28;;;;;;;;;;5028974;28;20057;-62
2023/05/30 08:03:46;;;;;;;6.55;3.30;;;;;;;;;;5012878;28;20060;-62
2023/05/30 08:06:17;;;;;;;7.90;3.22;;;;;;;;;;5012625;28;20057;-62
2023/05/30 08:08:47;;;;;;;6.20;2.50;;;;;;;;;;4980237;28;20053;-62
2023/05/30 08:11:17;;;;;;;7.68;3.15;;;;;;;;;;4995922;28;20049;-62
2023/05/30 08:13:48;;;;;;;6.53;3.72;;;;;;;;;;5028771;28;20052;-62
2023/05/30 08:16:18;;;;;;;8.25;3.28;;;;;;;;;;5028806;28;20053;-62
2023/05/30 08:18:49;;;;;;;6.53;2.55;;;;;;;;;;5015842;28;20065;-62
2023/05/30 08:21:19;;;;;;;6.00;2.85;;;;;;;;;;5032850;28;20057;-62
2023/05/30 08:23:49;;;;;;;5.90;2.60;;;;;;;;;;5030872;28;20056;-63
2023/05/30 08:26:20;;;;;;;6.47;2.90;;;;;;;;;;5075203;28;20048;-62
2023/05/30 08:28:52;;;;;;;4.78;2.42;;;;;;;;;;5056246;28;20048;-62
2023/05/30 08:31:23;;;;;;;6.40;2.92;;;;;;;;;;5075081;28;20365;-62
2023/05/30 08:33:53;;;;;;;8.95;2.90;;;;;;;;;;5056146;28;20063;-62
2023/05/30 08:36:23;;;;;;;7.32;3.13;;;;;;;;;;5073681;28;20387;-62
2023/05/30 08:38:55;;;;;;;5.55;3.00;;;;;;;;;;5075040;28;20111;-62
2023/05/30 08:41:42;;;;;;;6.70;2.90;;;;;;;;;;5075045;28;20384;-62
2023/05/30 08:44:12;;;;;;;6.20;2.90;;;;;;;;;;5039681;28;20052;-62
2023/05/30 08:46:43;;;;;;;5.18;2.90;;;;;;;;;;5052010;28;20076;-62
2023/05/30 08:49:17;;;;;;;6.60;3.10;;;;;;;;;;5019007;28;20253;-63
2023/05/30 08:51:49;;;;;;;7.45;3.15;;;;;;;;;;5002939;28;20045;-64
2023/05/30 08:54:31;;;;;;;6.35;3.10;;;;;;;;;;5052314;28;20068;-62
2023/05/30 08:57:09;;;;;;;9.25;3.47;;;;;;;;;;5052549;28;20061;-62
2023/05/30 08:59:40;;;;;;;6.60;3.60;;;;;;;;;;5052418;28;20049;-62
2023/05/30 09:02:12;;;;;;;5.95;2.97;;;;;;;;;;5052140;28;20152;-62
2023/05/30 09:04:43;;;;;;;6.13;3.03;;;;;;;;;;5035659;28;20049;-62
2023/05/30 09:07:15;;;;;;;6.40;3.40;;;;;;;;;;5052070;28;20064;-62
2023/05/30 09:09:46;;;;;;;7.00;3.47;;;;;;;;;;5051784;28;20416;-62
2023/05/30 09:12:17;;;;;;;7.88;3.08;;;;;;;;;;5051789;28;20080;-62
2023/05/30 09:14:47;;;;;;;7.13;4.32;;;;;;;;;;5051596;28;20500;-64
2023/05/30 09:17:18;;;;;;;6.40;3.15;;;;;;;;;;5058033;28;20060;-63
2023/05/30 09:19:49;;;;;;;7.40;3.40;;;;;;;;;;5074077;28;20045;-65
2023/05/30 09:22:20;;;;;;;6.65;3.33;;;;;;;;;;5074140;28;20048;-63
2023/05/30 09:25:03;;;;;;;5.63;2.80;;;;;;;;;;5055257;28;20061;-63
2023/05/30 09:27:38;;;;;;;5.78;2.80;;;;;;;;;;5071735;28;20060;-64
2023/05/30 09:30:12;;;;;;;6.03;2.88;;;;;;;;;;5074091;28;20384;-64
2023/05/30 09:32:59;;;;;;;5.90;2.90;;;;;;;;;;5073982;28;20067;-63
2023/05/30 09:35:30;;;;;;;8.73;3.28;;;;;;;;;;5039009;28;20056;-65
2023/05/30 09:38:05;;;;;;;5.78;3.30;;;;;;;;;;5038482;28;20061;-63
2023/05/30 09:40:36;;;;;;;6.95;3.15;;;;;;;;;;5073539;28;20047;-63
2023/05/30 09:43:06;;;;;;;7.57;3.40;;;;;;;;;;5073559;28;20037;-63
2023/05/30 09:45:36;;;;;;;6.45;3.20;;;;;;;;;;5038261;28;20064;-64
2023/05/30 09:48:06;;;;;;;9.48;3.70;;;;;;;;;;5073720;28;20530;-64
2023/05/30 09:50:36;;;;;;;13.00;4.07;;;;;;;;;;5073652;28;20045;-64
2023/05/30 09:53:07;;;;;;;9.50;4.03;;;;;;;;;;5054421;28;20492;-63
2023/05/30 09:55:37;;;;;;;8.68;4.22;;;;;;;;;;5073350;28;20036;-63
2023/05/30 09:58:17;;;;;;;23.58;4.57;;;;;;;;;;5073214;28;20049;-63
2023/05/30 10:00:53;;;;;;;19.73;5.03;;;;;;;;;;5073343;28;20507;-64
2023/05/30 10:03:44;;;;;;;9.95;4.53;;;;;;;;;;5037762;28;20056;-63
2023/05/30 10:06:15;;;;;;;9.77;4.20;;;;;;;;;;5054321;28;20057;-63
2023/05/30 10:08:47;;;;;;;8.57;4.25;;;;;;;;;;5072689;28;20518;-63
2023/05/30 10:11:19;;;;;;;9.80;4.32;;;;;;;;;;5050319;28;20536;-63
2023/05/30 10:13:50;;;;;;;8.80;4.00;;;;;;;;;;5034320;28;20354;-63
2023/05/30 10:16:20;;;;;;;8.80;4.30;;;;;;;;;;5033903;28;20052;-62
2023/05/30 10:18:55;;;;;;;13.95;4.30;;;;;;;;;;5016916;28;20155;-62
2023/05/30 10:21:28;;;;;;;13.18;4.10;;;;;;;;;;5050061;28;20523;-62
2023/05/30 10:24:01;;;;;;;23.05;4.20;;;;;;;;;;5050248;28;20056;-62
2023/05/30 10:26:35;;;;;;;12.88;4.32;;;;;;;;;;5050165;28;20072;-63
2023/05/30 10:29:09;;;;;;;13.38;4.22;;;;;;;;;;5049931;28;20420;-62
2023/05/30 10:31:40;;;;;;;10.10;4.53;;;;;;;;;;5050344;28;20191;-62
2023/05/30 10:34:13;;;;;;;18.25;5.80;;;;;;;;;;5049865;28;20057;-62
2023/05/30 10:36:44;;;;;;;17.88;5.30;;;;;;;;;;5017687;28;20057;-62
2023/05/30 10:39:39;;;;;;;22.70;5.55;;;;;;;;;;4954040;28;20370;-63
2023/05/30 10:42:26;;;;;;;14.90;5.15;;;;;;;;;;5032964;28;20049;-63
2023/05/30 10:45:15;;;;;;;28.83;5.50;;;;;;;;;;5000503;28;20068;-63
2023/05/30 10:47:53;;;;;;;26.90;4.75;;;;;;;;;;4987070;28;20067;-63
2023/05/30 10:50:38;;;;;;;18.65;5.25;;;;;;;;;;5036111;28;20063;-62
2023/05/30 10:53:15;;;;;;;16.83;5.63;;;;;;;;;;5069597;28;20052;-62
2023/05/30 10:55:48;;;;;;;36.20;6.55;;;;;;;;;;5069510;28;20052;-63
2023/05/30 10:58:37;;;;;;;31.77;6.15;;;;;;;;;;5069272;28;20059;-63
2023/05/30 11:01:26;;;;;;;12.02;5.30;;;;;;;;;;5049834;28;20056;-63
2023/05/30 11:04:02;;;;;;;20.02;4.72;;;;;;;;;;5069637;28;20056;-63
2023/05/30 11:06:38;;;;;;;19.23;5.90;;;;;;;;;;5069489;28;20055;-63
2023/05/30 11:09:18;;;;;;;35.45;6.10;;;;;;;;;;5052846;28;20063;-63
2023/05/30 11:11:59;;;;;;;25.58;6.88;;;;;;;;;;5020260;28;20048;-63
2023/05/30 11:14:32;;;;;;;23.90;5.97;;;;;;;;;;5031090;28;20373;-63
2023/05/30 11:17:08;;;;;;;19.27;6.70;;;;;;;;;;5080997;28;20033;-63
2023/05/30 11:19:39;;;;;;;31.83;5.57;;;;;;;;;;5039253;28;20066;-63
2023/05/30 11:22:10;;;;;;;18.60;5.55;;;;;;;;;;5085697;28;20097;-63
2023/05/30 11:24:41;;;;;;;22.17;5.40;;;;;;;;;;5091983;28;20067;-62
2023/05/30 11:27:16;;;;;;;17.52;5.97;;;;;;;;;;5091862;28;20048;-62
2023/05/30 11:29:54;;;;;;;28.45;6.22;;;;;;;;;;5091425;28;20488;-62
2023/05/30 11:32:28;;;;;;;20.98;5.60;;;;;;;;;;5091644;28;20500;-63
2023/05/30 11:35:00;;;;;;;14.65;5.40;;;;;;;;;;5056690;28;20360;-63
2023/05/30 11:37:37;;;;;;;16.80;5.50;;;;;;;;;;5091281;28;20056;-63
2023/05/30 11:40:12;;;;;;;14.40;5.63;;;;;;;;;;5038856;28;20051;-62
2023/05/30 11:42:43;;;;;;;17.23;5.40;;;;;;;;;;5091420;28;20074;-63
2023/05/30 11:45:16;;;;;;;14.40;5.70;;;;;;;;;;5056492;28;20056;-62
2023/05/30 11:47:47;;;;;;;13.60;5.80;;;;;;;;;;5039584;28;20054;-63
2023/05/30 11:50:19;;;;;;;13.50;5.28;;;;;;;;;;5081856;28;20089;-62
2023/05/30 11:52:49;;;;;;;;;;;;;;;;;;5041172;28;20056;-63
2023/05/30 11:55:19;;;;;;;12.10;5.20;;;;;;;;;;5039848;28;19928;-64
2023/05/30 11:57:49;;;;;;;11.48;5.00;;;;;;;;;;5040460;28;20071;-62
2023/05/30 12:00:20;;;;;;;14.95;4.63;;;;;;;;;;5028048;28;20048;-63
2023/05/30 12:02:52;;;;;;;14.13;5.82;;;;;;;;;;5030668;28;20056;-63
2023/05/30 12:05:22;;;;;;;13.10;5.60;;;;;;;;;;5054938;28;20079;-63
2023/05/30 12:07:53;;;;;;;11.93;4.63;;;;;;;;;;5024839;28;20049;-62
2023/05/30 12:10:30;;;;;;;12.38;5.15;;;;;;;;;;5008169;28;20726;-63
2023/05/30 12:13:02;;;;;;;11.63;5.05;;;;;;;;;;5014919;28;20519;-64
2023/05/30 12:15:32;;;;;;;13.90;6.57;;;;;;;;;;5056368;28;20064;-64
2023/05/30 12:18:03;;;;;;;14.65;5.93;;;;;;;;;;5023144;28;20127;-63
2023/05/30 12:20:43;;;;;;;14.50;6.55;;;;;;;;;;5040281;28;20200;-63
2023/05/30 12:23:14;;;;;;;12.35;6.25;;;;;;;;;;5057040;28;20415;-63
2023/05/30 12:25:53;;;;;;;14.30;5.95;;;;;;;;;;5059374;28;20068;-63
2023/05/30 12:28:23;;;;;;;14.88;7.32;;;;;;;;;;5081931;28;20403;-63
2023/05/30 12:30:54;;;;;;;16.42;7.45;;;;;;;;;;5082215;28;20044;-62
2023/05/30 12:33:27;;;;;;;17.85;8.30;;;;;;;;;;5075997;28;20048;-63
2023/05/30 12:35:57;;;;;;;;;;;;;;;;;;5044598;28;20056;-62
2023/05/30 12:38:27;;;;;;;16.08;6.95;;;;;;;;;;5079483;28;19927;-63
2023/05/30 12:40:57;;;;;;;12.65;6.53;;;;;;;;;;5080462;28;20051;-62
2023/05/30 12:43:29;;;;;;;22.52;8.02;;;;;;;;;;5044960;28;20059;-62
2023/05/30 12:46:00;;;;;;;21.05;7.13;;;;;;;;;;5083193;28;20403;-63
2023/05/30 12:48:30;;;;;;;14.07;6.88;;;;;;;;;;5080265;28;20040;-63
2023/05/30 12:51:04;;;;;;;25.65;6.80;;;;;;;;;;5078471;28;20040;-63
2023/05/30 12:53:34;;;;;;;17.58;5.82;;;;;;;;;;5026555;28;20052;-63
2023/05/30 12:56:05;;;;;;;14.93;4.00;;;;;;;;;;5078532;28;20044;-62
2023/05/30 12:58:36;;;;;;;11.95;5.22;;;;;;;;;;5015269;28;20416;-63
2023/05/30 13:01:06;;;;;;;9.05;3.03;;;;;;;;;;5090681;28;20044;-63
2023/05/30 13:03:37;;;;;;;5.93;2.15;;;;;;;;;;5091681;28;20055;-63
2023/05/30 13:06:07;;;;;;;11.30;4.25;;;;;;;;;;5072949;28;20040;-63
2023/05/30 13:08:37;;;;;;;4.70;2.20;;;;;;;;;;5032179;28;20507;-62
2023/05/30 13:11:07;;;;;;;3.28;1.58;;;;;;;;;;5093418;28;20055;-63
2023/05/30 13:13:38;;;;;;;3.70;2.35;;;;;;;;;;5072652;28;20518;-63
2023/05/30 13:16:08;;;;;;;3.53;1.63;;;;;;;;;;5038679;28;20052;-62
2023/05/30 13:18:38;;;;;;;3.95;1.55;;;;;;;;;;5074115;28;20051;-63
2023/05/30 13:21:09;;;;;;;3.95;1.42;;;;;;;;;;5073652;28;20044;-62
2023/05/30 13:23:39;;;;;;;4.60;1.52;;;;;;;;;;5038540;28;20060;-63
2023/05/30 13:26:13;;;;;;;2.88;1.50;;;;;;;;;;5073818;28;20043;-62
2023/05/30 13:28:43;;;;;;;3.42;1.63;;;;;;;;;;5051254;28;20055;-63
2023/05/30 13:31:14;;;;;;;3.58;1.50;;;;;;;;;;5051456;28;20519;-62
2023/05/30 13:33:45;;;;;;;4.05;1.55;;;;;;;;;;4969367;28;20508;-62
2023/05/30 13:36:16;;;;;;;3.22;1.38;;;;;;;;;;5051128;28;20141;-62
2023/05/30 13:38:46;;;;;;;3.35;1.30;;;;;;;;;;5051190;28;20059;-63
2023/05/30 13:41:17;;;;;;;3.00;1.40;;;;;;;;;;5064924;28;20053;-62
2023/05/30 13:43:48;;;;;;;3.22;1.50;;;;;;;;;;5054147;28;20569;-63
2023/05/30 13:46:18;;;;;;;3.33;1.60;;;;;;;;;;5070925;28;20052;-63
2023/05/30 13:48:49;;;;;;;3.90;1.42;;;;;;;;;;5071108;28;20059;-62
2023/05/30 13:51:19;;;;;;;4.22;1.63;;;;;;;;;;5067100;28;20049;-63
2023/05/30 13:53:49;;;;;;;3.63;1.63;;;;;;;;;;5050982;28;20526;-63
2023/05/30 13:56:30;;;;;;;3.53;1.52;;;;;;;;;;4988703;28;20053;-62
2023/05/30 13:59:01;;;;;;;3.95;1.80;;;;;;;;;;5060429;28;20064;-63
2023/05/30 14:01:32;;;;;;;3.13;1.40;;;;;;;;;;5050464;28;20060;-62
2023/05/30 14:04:03;;;;;;;3.22;1.40;;;;;;;;;;5054540;28;20048;-62
2023/05/30 14:06:33;;;;;;;3.63;1.70;;;;;;;;;;5037532;28;20064;-63
2023/05/30 14:09:07;;;;;;;6.50;3.05;;;;;;;;;;5073071;28;20040;-62
2023/05/30 14:11:37;;;;;;;5.30;2.05;;;;;;;;;;5017224;28;20055;-63
2023/05/30 14:14:08;;;;;;;3.45;1.75;;;;;;;;;;5051625;28;20053;-64
2023/05/30 14:16:39;;;;;;;5.25;1.80;;;;;;;;;;5019718;28;20049;-63
2023/05/30 14:19:12;;;;;;;5.25;1.85;;;;;;;;;;5064280;28;20508;-63
2023/05/30 14:21:43;;;;;;;2.58;1.52;;;;;;;;;;5041268;28;20045;-63
2023/05/30 14:24:13;;;;;;;3.55;1.52;;;;;;;;;;5026135;28;20052;-63
2023/05/30 14:26:43;;;;;;;6.88;2.25;;;;;;;;;;5010198;28;20068;-63
2023/05/30 14:29:13;;;;;;;3.47;1.70;;;;;;;;;;5033434;28;20056;-64
2023/05/30 14:31:43;;;;;;;4.75;1.67;;;;;;;;;;5000468;28;20068;-64
2023/05/30 14:34:13;;;;;;;6.50;1.98;;;;;;;;;;5049970;28;20159;-64
2023/05/30 14:36:44;;;;;;;3.15;1.75;;;;;;;;;;5050018;28;20084;-63
2023/05/30 14:39:14;;;;;;;3.13;1.52;;;;;;;;;;5050041;28;20049;-63
2023/05/30 14:41:45;;;;;;;2.67;1.52;;;;;;;;;;5020795;28;20570;-62
2023/05/30 14:44:15;;;;;;;4.03;1.60;;;;;;;;;;5038565;28;20421;-62
2023/05/30 14:46:46;;;;;;;3.63;1.52;;;;;;;;;;5027507;28;20041;-63
2023/05/30 14:49:19;;;;;;;3.65;1.52;;;;;;;;;;5034534;28;20521;-63
2023/05/30 14:51:50;;;;;;;3.22;1.95;;;;;;;;;;5049330;28;20489;-64
2023/05/30 14:54:20;;;;;;;3.08;1.63;;;;;;;;;;5029715;28;20050;-63
2023/05/30 14:56:51;;;;;;;4.45;1.48;;;;;;;;;;5029558;28;20053;-64
2023/05/30 14:59:22;;;;;;;2.92;1.25;;;;;;;;;;4997830;28;20057;-63
2023/05/30 15:01:53;;;;;;;2.22;1.25;;;;;;;;;;4997695;28;20058;-63
2023/05/30 15:04:23;;;;;;;3.17;1.80;;;;;;;;;;4996956;28;20412;-63
2023/05/30 15:06:53;;;;;;;2.42;0.82;;;;;;;;;;4996573;28;20050;-64
2023/05/30 15:09:25;;;;;;;2.60;1.10;;;;;;;;;;5027615;28;20076;-64